Flight Track Log - Related Links

Times and Time Zones

All times are in EDT time to prevent confusion due to time zone crossing. See the LBQ652 flight status page for this flight to view local times or setup timezone preferences in your user account.

Time Position Orientation Groundspeed Altitude Reporting Facility
EDT Latitude Longitude Course Direction KTS MPH feet Rate Location/Type
Tue 02:53:41 AM 42.6456 -83.8025 260° West 289 333 9,300  Level Chicago Center
Tue 02:54:41 AM 42.6278 -83.9167 258° West 306 352 10,700 1,400 Climbing Chicago Center
Tue 02:55:41 AM 42.6125 -84.0314 260° West 310 357 12,100 1,300 Climbing Chicago Center
Tue 02:56:41 AM 42.5942 -84.1472 258° West 314 361 13,300 1,438 Climbing Chicago Center
Tue 02:57:17 AM 42.5814 -84.2353 259° West 322 371 14,400 1,361 Climbing Cleveland Center
Tue 02:58:00 AM 42.5655 -84.1469 260° West  Level Estimated
Tue 02:58:18 AM 42.5631 -84.3553 258° West 325 374 15,500  Level Cleveland Center
Tue 03:00:42 AM 42.5211 -84.6328 259° West 333 383 18,200 1,059 Climbing Chicago Center
Tue 03:01:42 AM 42.5022 -84.7567 258° West 334 384 19,100 900 Climbing Chicago Center
Tue 03:02:42 AM 42.4828 -84.8847 258° West 345 397 20,000 1,000 Climbing Chicago Center
Tue 03:03:42 AM 42.4622 -85.0125 258° West 347 399 21,100 1,050 Climbing Chicago Center
Tue 03:04:42 AM 42.4422 -85.1428 258° West 352 405 22,100 1,200 Climbing Chicago Center
Tue 03:05:42 AM 42.4219 -85.2706 258° West 350 403 23,500 1,250 Climbing Chicago Center
Tue 03:06:42 AM 42.4017 -85.3981 258° West 347 399 24,600 1,190 Climbing Chicago Center
Tue 03:07:43 AM 42.3811 -85.5253 258° West 347 399 25,900 1,289 Climbing Chicago Center
Tue 03:08:43 AM 42.3611 -85.6481 258° West 337 388 27,200 1,050 Climbing Chicago Center
Tue 03:09:43 AM 42.3406 -85.7719 257° West 338 389 28,000 400 Climbing Chicago Center
Tue 03:10:43 AM 42.3192 -85.9058 258° West 357 411 28,000  Level Chicago Center
Tue 03:11:43 AM 42.2961 -86.0453 257° West 375 432 28,000  Level Chicago Center
Tue 03:12:43 AM 42.2703 -86.1989 257° West 390 449 28,000  Level Chicago Center
Tue 03:13:43 AM 42.2464 -86.3403 257° West 390 449 28,000  Level Chicago Center
Tue 03:14:43 AM 42.2217 -86.4828 257° West 392 451 28,000  Level Chicago Center
Tue 03:15:44 AM 42.1975 -86.6261 257° West 394 453 28,000 -976 Level Chicago Center
Tue 03:17:00 AM 42.1515 -86.7644 256° West  Level FlightAware Approximate
Tue 03:19:38 AM 42.1000 -87.1833 257° West 376 433 23,200  Level Chicago TRACON
Tue 03:20:38 AM 42.0833 -87.3167 260° West 358 412 20,500 -2,700 Descending Chicago TRACON
Tue 03:21:38 AM 42.0500 -87.4500 251° West 354 407 17,800 -2,628 Descending Chicago TRACON
Tue 03:22:39 AM 42.0333 -87.5667 259° West 343 395 15,200 -2,579 Descending Chicago TRACON
Tue 03:23:39 AM 42.0167 -87.7000 260° West 336 387 12,600 -2,500 Descending Chicago TRACON
Tue 03:24:00 AM 42.0187 -87.5381 257° West  Level FlightAware Approximate
Tue 03:24:39 AM 41.9833 -87.8167 249° West 325 374 10,200  Level Chicago TRACON
Tue 03:25:39 AM 41.9667 -87.9167 257° West 340 391 8,200 -2,500 Descending Chicago TRACON
Tue 03:26:39 AM 41.9667 -88.0333 270° West 268 308 5,200 -2,600 Descending Chicago TRACON
Tue 03:27:39 AM 41.9500 -88.1167 255° West 257 296 3,000 -1,500 Descending Chicago TRACON
Tue 03:28:39 AM 41.9500 -88.2000 270° West 188 216 2,200 -850 Descending Chicago TRACON
Tue 03:29:39 AM 41.9333 -88.2333 236° Southwest 134 154 1,300 -661 Descending Chicago TRACON
Tue 03:30:46 AM 41.9050 -88.2497 203° Southwest 143 165 800 -448 Descending Chicago Center

Login

Don't have an account? Register now (free) for customized features, flight alerts, and more!